Time;durP1;ratioP1;P1;durP2;ratioP2;P2;SDS_P1;SDS_P2;PMS_P1;PMS_P2;Temp;Humidity;BMP_temperature;BMP_pressure;BME280_temperature;BME280_humidity;BME280_pressure;Samples;Min_cycle;Max_cycle;Signal;HPM_P1;HPM_P2
2024/01/23 00:02:22;;;;;;;4.13;0.90;;;;;;;;;;4992188;28;20061;-61
2024/01/23 00:04:48;;;;;;;4.10;0.88;;;;;;;;;;4993925;28;20525;-60
2024/01/23 00:07:14;;;;;;;1.83;1.00;;;;;;;;;;4993207;28;20061;-60
2024/01/23 00:09:40;;;;;;;3.80;0.90;;;;;;;;;;4994383;28;20049;-61
2024/01/23 00:12:07;;;;;;;4.28;0.98;;;;;;;;;;4992704;28;20046;-60
2024/01/23 00:14:34;;;;;;;2.85;1.30;;;;;;;;;;4994667;28;20553;-61
2024/01/23 00:17:00;;;;;;;2.10;0.90;;;;;;;;;;5008200;28;20042;-60
2024/01/23 00:19:27;;;;;;;5.97;1.30;;;;;;;;;;4991640;28;20494;-60
2024/01/23 00:21:53;;;;;;;5.30;1.20;;;;;;;;;;4994411;28;20445;-60
2024/01/23 00:24:19;;;;;;;4.32;1.20;;;;;;;;;;4997539;28;20041;-61
2024/01/23 00:26:45;;;;;;;6.28;1.27;;;;;;;;;;4992990;28;20521;-61
2024/01/23 00:29:12;;;;;;;2.95;1.00;;;;;;;;;;4991791;28;20061;-61
2024/01/23 00:31:38;;;;;;;5.07;1.08;;;;;;;;;;4993675;28;20042;-60
2024/01/23 00:34:04;;;;;;;5.05;1.33;;;;;;;;;;4995356;28;20054;-59
2024/01/23 00:36:30;;;;;;;3.95;1.27;;;;;;;;;;4995404;28;20542;-60
2024/01/23 00:38:56;;;;;;;7.80;1.40;;;;;;;;;;4997188;28;20064;-61
2024/01/23 00:41:22;;;;;;;4.07;1.10;;;;;;;;;;4997185;28;20047;-60
2024/01/23 00:43:48;;;;;;;3.95;0.98;;;;;;;;;;4991811;28;20039;-60
2024/01/23 00:46:15;;;;;;;5.20;1.10;;;;;;;;;;4991713;28;20057;-60
2024/01/23 00:48:41;;;;;;;3.85;1.20;;;;;;;;;;4998052;28;20042;-60
2024/01/23 00:51:07;;;;;;;8.45;1.23;;;;;;;;;;4991082;28;20538;-59
2024/01/23 00:53:35;;;;;;;7.20;1.17;;;;;;;;;;5001228;28;20040;-60
2024/01/23 00:56:01;;;;;;;5.05;1.30;;;;;;;;;;4986630;28;20053;-59
2024/01/23 00:58:27;;;;;;;3.83;1.27;;;;;;;;;;4990315;28;20493;-63
2024/01/23 01:00:53;;;;;;;3.38;0.88;;;;;;;;;;4991828;28;20046;-62
2024/01/23 01:03:19;;;;;;;4.72;0.93;;;;;;;;;;4992260;28;20042;-62
2024/01/23 01:05:46;;;;;;;2.97;1.00;;;;;;;;;;4992080;28;20038;-60
2024/01/23 01:08:12;;;;;;;2.10;1.00;;;;;;;;;;4992882;28;20042;-60
2024/01/23 01:10:38;;;;;;;2.97;0.88;;;;;;;;;;4992058;28;20390;-60
2024/01/23 01:13:05;;;;;;;5.43;1.33;;;;;;;;;;4992515;28;20046;-60
2024/01/23 01:15:31;;;;;;;3.30;1.00;;;;;;;;;;4993293;28;20038;-61
2024/01/23 01:17:57;;;;;;;2.00;0.90;;;;;;;;;;4993332;28;20079;-60
2024/01/23 01:20:23;;;;;;;6.28;1.10;;;;;;;;;;4990150;28;20034;-60
2024/01/23 01:22:49;;;;;;;3.70;1.10;;;;;;;;;;4989674;28;20030;-60
2024/01/23 01:25:15;;;;;;;5.63;1.10;;;;;;;;;;4995460;28;20041;-61
2024/01/23 01:27:41;;;;;;;5.15;1.02;;;;;;;;;;4987474;28;20512;-60
2024/01/23 01:30:08;;;;;;;5.55;1.08;;;;;;;;;;4991899;28;20045;-60
2024/01/23 01:32:34;;;;;;;3.10;0.90;;;;;;;;;;4994697;28;20034;-61
2024/01/23 01:35:00;;;;;;;3.40;0.90;;;;;;;;;;4998564;28;20045;-60
2024/01/23 01:37:26;;;;;;;5.38;0.95;;;;;;;;;;4995192;28;20695;-60
2024/01/23 01:39:52;;;;;;;4.82;1.13;;;;;;;;;;4994225;28;20027;-60
2024/01/23 01:42:18;;;;;;;5.32;1.23;;;;;;;;;;4994042;28;20053;-60
2024/01/23 01:44:45;;;;;;;5.88;0.93;;;;;;;;;;5001043;28;20030;-60
2024/01/23 01:47:11;;;;;;;3.97;1.00;;;;;;;;;;4999757;28;20545;-59
2024/01/23 01:49:37;;;;;;;5.68;1.20;;;;;;;;;;4992650;28;20389;-61
2024/01/23 01:52:03;;;;;;;2.75;0.98;;;;;;;;;;4996041;28;20046;-61
2024/01/23 01:54:30;;;;;;;1.98;1.00;;;;;;;;;;4988977;28;20045;-60
2024/01/23 01:56:59;;;;;;;4.38;1.52;;;;;;;;;;4987892;28;20041;-60
2024/01/23 01:59:25;;;;;;;6.13;1.90;;;;;;;;;;4986416;28;20043;-60
2024/01/23 02:01:52;;;;;;;4.75;0.90;;;;;;;;;;4983084;28;20064;-60
2024/01/23 02:04:18;;;;;;;4.22;1.10;;;;;;;;;;4992344;28;20050;-62
2024/01/23 02:06:46;;;;;;;4.40;1.10;;;;;;;;;;4987134;28;20030;-62
2024/01/23 02:09:12;;;;;;;3.10;0.90;;;;;;;;;;4991132;28;20403;-62
2024/01/23 02:12:14;;;;;;;5.20;1.00;;;;;;;;;;4990943;28;20042;-62
2024/01/23 02:14:40;;;;;;;5.30;1.27;;;;;;;;;;4968686;28;20062;-62
2024/01/23 02:17:06;;;;;;;5.30;0.90;;;;;;;;;;4990696;28;20046;-61
2024/01/23 02:19:33;;;;;;;3.95;0.80;;;;;;;;;;4990419;28;20042;-62
2024/01/23 02:21:59;;;;;;;5.00;1.20;;;;;;;;;;4993119;28;20042;-63
2024/01/23 02:24:26;;;;;;;5.28;0.90;;;;;;;;;;4990202;28;20050;-63
2024/01/23 02:26:52;;;;;;;7.10;1.17;;;;;;;;;;4996710;28;20401;-62
2024/01/23 02:29:18;;;;;;;7.72;1.65;;;;;;;;;;4993103;28;20026;-61
2024/01/23 02:31:44;;;;;;;4.53;0.88;;;;;;;;;;4989837;28;20053;-62
2024/01/23 02:34:10;;;;;;;4.15;1.20;;;;;;;;;;4990629;28;20034;-62
2024/01/23 02:36:39;;;;;;;4.80;1.08;;;;;;;;;;4998119;28;20069;-63
2024/01/23 02:39:08;;;;;;;5.95;1.13;;;;;;;;;;4988542;28;20050;-63
2024/01/23 02:41:35;;;;;;;6.03;1.27;;;;;;;;;;4997550;28;20050;-63
2024/01/23 02:44:01;;;;;;;4.50;0.98;;;;;;;;;;4995559;28;20362;-63
2024/01/23 02:46:27;;;;;;;6.68;1.60;;;;;;;;;;4996774;28;20058;-62
2024/01/23 02:48:53;;;;;;;4.05;0.98;;;;;;;;;;4989301;28;20517;-62
2024/01/23 02:51:19;;;;;;;4.80;1.85;;;;;;;;;;4990896;28;20034;-63
2024/01/23 02:53:48;;;;;;;7.00;1.10;;;;;;;;;;4995041;28;20478;-62
2024/01/23 02:56:14;;;;;;;9.30;0.90;;;;;;;;;;4989644;28;20054;-62
2024/01/23 02:58:41;;;;;;;7.07;1.20;;;;;;;;;;4991583;28;20433;-60
2024/01/23 03:01:08;;;;;;;7.60;1.25;;;;;;;;;;4990059;28;20042;-61
2024/01/23 03:03:34;;;;;;;7.18;1.27;;;;;;;;;;4988614;28;20026;-63
2024/01/23 03:06:00;;;;;;;9.13;1.50;;;;;;;;;;4987279;28;20034;-62
2024/01/23 03:08:26;;;;;;;6.00;1.30;;;;;;;;;;4988822;28;20112;-61
2024/01/23 03:10:52;;;;;;;11.93;1.17;;;;;;;;;;4993052;28;20038;-62
2024/01/23 03:13:18;;;;;;;5.47;1.10;;;;;;;;;;4996193;28;20044;-62
2024/01/23 03:15:44;;;;;;;4.07;1.27;;;;;;;;;;4995051;28;20050;-62
2024/01/23 03:18:11;;;;;;;8.82;1.30;;;;;;;;;;4993176;28;20038;-62
2024/01/23 03:20:37;;;;;;;8.10;1.20;;;;;;;;;;4991601;28;20041;-62
2024/01/23 03:23:03;;;;;;;5.07;1.00;;;;;;;;;;4996953;28;20508;-62
2024/01/23 03:25:29;;;;;;;3.75;0.82;;;;;;;;;;4997702;28;20054;-64
2024/01/23 03:27:56;;;;;;;7.65;1.20;;;;;;;;;;4993489;28;20524;-62
2024/01/23 03:30:32;;;;;;;12.77;1.27;;;;;;;;;;4994096;28;20034;-61
2024/01/23 03:33:00;;;;;;;7.38;1.50;;;;;;;;;;4994083;28;20026;-63
2024/01/23 03:35:26;;;;;;;6.38;1.35;;;;;;;;;;4993669;28;20034;-62
2024/01/23 03:37:52;;;;;;;8.77;1.45;;;;;;;;;;4992326;28;20057;-60
2024/01/23 03:40:18;;;;;;;9.73;1.80;;;;;;;;;;4992672;28;20049;-62
2024/01/23 03:42:45;;;;;;;6.70;1.00;;;;;;;;;;5003326;28;20560;-63
2024/01/23 03:45:11;;;;;;;6.43;1.30;;;;;;;;;;5002190;28;20042;-62
2024/01/23 03:47:37;;;;;;;8.32;1.33;;;;;;;;;;4991927;28;20034;-63
2024/01/23 03:50:03;;;;;;;8.52;2.03;;;;;;;;;;4999098;28;20041;-63
2024/01/23 03:52:30;;;;;;;4.55;1.27;;;;;;;;;;4991276;28;20034;-63
2024/01/23 03:54:56;;;;;;;7.55;1.20;;;;;;;;;;4989074;28;20486;-62
2024/01/23 03:57:22;;;;;;;4.97;1.10;;;;;;;;;;4996705;28;20295;-62
2024/01/23 03:59:49;;;;;;;6.63;1.33;;;;;;;;;;4992039;28;20049;-63
2024/01/23 04:02:15;;;;;;;9.45;1.80;;;;;;;;;;4994273;28;20049;-63
2024/01/23 04:04:41;;;;;;;7.68;1.65;;;;;;;;;;4993061;28;20061;-62
2024/01/23 04:07:07;;;;;;;9.05;2.28;;;;;;;;;;4993936;28;20057;-63
2024/01/23 04:09:33;;;;;;;5.75;1.75;;;;;;;;;;4992620;28;20509;-64
2024/01/23 04:11:59;;;;;;;12.63;2.05;;;;;;;;;;4990349;28;20379;-62
2024/01/23 04:14:26;;;;;;;8.95;2.30;;;;;;;;;;4995243;28;20762;-63
2024/01/23 04:16:52;;;;;;;8.05;2.42;;;;;;;;;;4986830;28;20041;-62
2024/01/23 04:19:18;;;;;;;6.13;1.88;;;;;;;;;;4987084;28;20041;-63
2024/01/23 04:21:46;;;;;;;6.90;1.60;;;;;;;;;;4988492;28;20035;-63
2024/01/23 04:24:12;;;;;;;10.95;1.95;;;;;;;;;;4990746;28;20038;-63
2024/01/23 04:26:44;;;;;;;9.18;1.40;;;;;;;;;;4995832;28;20042;-64
2024/01/23 04:29:10;;;;;;;5.78;1.10;;;;;;;;;;4991879;28;20040;-64
2024/01/23 04:31:37;;;;;;;7.45;1.30;;;;;;;;;;4991991;28;20045;-64
2024/01/23 04:34:03;;;;;;;8.15;1.38;;;;;;;;;;4998761;28;20048;-64
2024/01/23 04:36:29;;;;;;;11.85;1.80;;;;;;;;;;4998172;28;20041;-64
2024/01/23 04:38:55;;;;;;;11.55;1.55;;;;;;;;;;4991933;28;20034;-63
2024/01/23 04:41:22;;;;;;;11.48;1.75;;;;;;;;;;5007231;28;20034;-64
2024/01/23 04:43:48;;;;;;;11.10;1.58;;;;;;;;;;4998295;28;20037;-64
2024/01/23 04:46:14;;;;;;;4.18;1.30;;;;;;;;;;4995512;28;20026;-65
2024/01/23 04:48:40;;;;;;;4.93;1.35;;;;;;;;;;4994068;28;20474;-63
2024/01/23 04:51:06;;;;;;;20.00;1.75;;;;;;;;;;4994109;28;20057;-62
2024/01/23 04:53:33;;;;;;;10.05;1.90;;;;;;;;;;4997689;28;20034;-63
2024/01/23 04:55:59;;;;;;;4.88;1.77;;;;;;;;;;4995994;28;20114;-63
2024/01/23 04:58:25;;;;;;;13.60;1.80;;;;;;;;;;4989771;28;20049;-64
2024/01/23 05:00:51;;;;;;;13.10;1.90;;;;;;;;;;4993564;28;20050;-63
2024/01/23 05:03:17;;;;;;;8.93;1.60;;;;;;;;;;4985710;28;20029;-64
2024/01/23 05:05:44;;;;;;;6.97;1.58;;;;;;;;;;4992516;28;20032;-64
2024/01/23 05:08:10;;;;;;;8.95;2.08;;;;;;;;;;4996580;28;20053;-63
2024/01/23 05:10:36;;;;;;;5.53;1.23;;;;;;;;;;4990653;28;20046;-64
2024/01/23 05:13:02;;;;;;;9.25;1.60;;;;;;;;;;4995073;28;20038;-66
2024/01/23 05:15:29;;;;;;;9.30;1.88;;;;;;;;;;4992859;28;20046;-65
2024/01/23 05:17:55;;;;;;;10.13;1.38;;;;;;;;;;4999621;28;20038;-65
2024/01/23 05:20:21;;;;;;;8.88;1.50;;;;;;;;;;4988693;28;20042;-64
2024/01/23 05:22:47;;;;;;;8.63;1.70;;;;;;;;;;4996635;28;20038;-66
2024/01/23 05:25:13;;;;;;;13.23;1.98;;;;;;;;;;4996109;28;20517;-64
2024/01/23 05:27:39;;;;;;;13.30;1.80;;;;;;;;;;4976481;28;20072;-64
2024/01/23 05:30:07;;;;;;;16.65;1.95;;;;;;;;;;4992510;28;20050;-65
2024/01/23 05:32:33;;;;;;;9.50;1.52;;;;;;;;;;4987591;28;20497;-63
2024/01/23 05:35:03;;;;;;;5.78;1.45;;;;;;;;;;4997223;28;20363;-64
2024/01/23 05:37:30;;;;;;;1.40;0.80;;;;;;;;;;4976417;28;20049;-63
2024/01/23 05:39:56;;;;;;;5.28;1.50;;;;;;;;;;4991506;28;20038;-64
2024/01/23 05:42:22;;;;;;;4.85;1.40;;;;;;;;;;4989491;28;20054;-63
2024/01/23 05:44:49;;;;;;;3.53;1.00;;;;;;;;;;4994680;28;20025;-63
2024/01/23 05:47:15;;;;;;;8.48;2.28;;;;;;;;;;4992790;28;20038;-65
2024/01/23 05:49:41;;;;;;;4.50;1.27;;;;;;;;;;4984750;28;20386;-64
2024/01/23 05:52:07;;;;;;;2.65;1.38;;;;;;;;;;4993698;28;20598;-63
2024/01/23 05:54:33;;;;;;;2.47;1.80;;;;;;;;;;4969941;28;20046;-64
2024/01/23 05:56:59;;;;;;;5.50;2.33;;;;;;;;;;4989839;28;20744;-64
2024/01/23 05:59:25;;;;;;;3.67;1.80;;;;;;;;;;4989384;28;20490;-65
2024/01/23 06:01:51;;;;;;;3.65;1.90;;;;;;;;;;4992139;28;20050;-64
2024/01/23 06:04:17;;;;;;;3.97;1.33;;;;;;;;;;4995432;28;20033;-64
2024/01/23 06:06:43;;;;;;;0.98;0.80;;;;;;;;;;4989967;28;20402;-64
2024/01/23 06:09:12;;;;;;;4.60;2.10;;;;;;;;;;4987428;28;20501;-64
2024/01/23 06:11:39;;;;;;;1.20;0.60;;;;;;;;;;4989739;28;20034;-65
2024/01/23 06:14:05;;;;;;;0.50;0.30;;;;;;;;;;4986201;28;20386;-64
2024/01/23 06:16:31;;;;;;;0.38;0.38;;;;;;;;;;4994246;28;20030;-65
2024/01/23 06:18:58;;;;;;;1.27;0.55;;;;;;;;;;4992430;28;20030;-64
2024/01/23 06:21:24;;;;;;;0.50;0.50;;;;;;;;;;4984311;28;20111;-64
2024/01/23 06:23:50;;;;;;;0.32;0.32;;;;;;;;;;4994092;28;20030;-64
2024/01/23 06:26:17;;;;;;;1.00;0.50;;;;;;;;;;4990258;28;20038;-63
2024/01/23 06:28:45;;;;;;;1.00;0.60;;;;;;;;;;4989632;28;20394;-63
2024/01/23 06:31:12;;;;;;;0.95;0.70;;;;;;;;;;4990154;28;20042;-65
2024/01/23 06:33:38;;;;;;;4.05;1.10;;;;;;;;;;4992572;28;20639;-64
2024/01/23 06:36:04;;;;;;;6.35;1.10;;;;;;;;;;4993658;28;20045;-64
2024/01/23 06:38:31;;;;;;;1.40;0.73;;;;;;;;;;4993835;28;20061;-65
2024/01/23 06:40:57;;;;;;;2.35;0.73;;;;;;;;;;4990020;28;20038;-65
2024/01/23 06:43:23;;;;;;;2.22;0.90;;;;;;;;;;4998090;28;20170;-65
2024/01/23 06:45:49;;;;;;;3.47;1.00;;;;;;;;;;5000159;28;20057;-65
2024/01/23 06:48:15;;;;;;;2.63;1.05;;;;;;;;;;4994213;28;20054;-66
2024/01/23 06:50:44;;;;;;;1.27;0.80;;;;;;;;;;5001543;28;20034;-65
2024/01/23 06:53:10;;;;;;;1.70;0.85;;;;;;;;;;4994159;28;20038;-64
2024/01/23 06:55:36;;;;;;;1.77;1.35;;;;;;;;;;4993721;28;20632;-66
2024/01/23 06:58:04;;;;;;;1.42;0.90;;;;;;;;;;4994036;28;20042;-66
2024/01/23 07:00:30;;;;;;;2.97;0.90;;;;;;;;;;4995386;28;20045;-65
2024/01/23 07:02:56;;;;;;;1.88;1.05;;;;;;;;;;4993314;28;20501;-65
2024/01/23 07:05:22;;;;;;;1.70;0.80;;;;;;;;;;4994744;28;20413;-66
2024/01/23 07:07:48;;;;;;;5.18;0.90;;;;;;;;;;4991107;28;20053;-66
2024/01/23 07:10:15;;;;;;;2.72;0.90;;;;;;;;;;4995502;28;20049;-63
2024/01/23 07:12:41;;;;;;;2.15;0.90;;;;;;;;;;4997637;28;20050;-63
2024/01/23 07:15:07;;;;;;;3.88;1.75;;;;;;;;;;4992660;28;20054;-61
2024/01/23 07:17:33;;;;;;;7.00;1.48;;;;;;;;;;4997645;28;20042;-64
2024/01/23 07:20:00;;;;;;;2.88;1.20;;;;;;;;;;4997289;28;20035;-61
2024/01/23 07:22:26;;;;;;;2.45;1.30;;;;;;;;;;4998444;28;20054;-63
2024/01/23 07:24:52;;;;;;;3.20;1.35;;;;;;;;;;5003108;28;20041;-64
2024/01/23 07:27:19;;;;;;;3.38;0.90;;;;;;;;;;5002007;28;20504;-63
2024/01/23 07:29:46;;;;;;;4.90;1.42;;;;;;;;;;5014840;28;20065;-63
2024/01/23 07:32:12;;;;;;;4.43;1.67;;;;;;;;;;4999091;28;20046;-63
2024/01/23 07:34:38;;;;;;;2.58;1.00;;;;;;;;;;5002557;28;20407;-63
2024/01/23 07:37:04;;;;;;;3.30;1.50;;;;;;;;;;4997713;28;20043;-63
2024/01/23 07:39:30;;;;;;;4.60;1.48;;;;;;;;;;5001177;28;20050;-64
2024/01/23 07:41:58;;;;;;;2.95;1.35;;;;;;;;;;4995095;28;20406;-64
2024/01/23 07:44:24;;;;;;;4.32;1.08;;;;;;;;;;5001408;28;20053;-64
2024/01/23 07:46:51;;;;;;;3.15;1.33;;;;;;;;;;5005353;28;20037;-62
2024/01/23 07:49:17;;;;;;;5.68;2.10;;;;;;;;;;4993335;28;20041;-63
2024/01/23 07:51:47;;;;;;;10.18;2.63;;;;;;;;;;4991515;28;20528;-63
2024/01/23 07:54:14;;;;;;;3.45;1.20;;;;;;;;;;4993572;28;20414;-61
2024/01/23 07:56:40;;;;;;;1.58;1.13;;;;;;;;;;4995032;28;20042;-62
2024/01/23 07:59:06;;;;;;;3.25;1.40;;;;;;;;;;4994160;28;20038;-64
2024/01/23 08:01:32;;;;;;;6.32;1.60;;;;;;;;;;4990371;28;20033;-64
2024/01/23 08:03:58;;;;;;;2.67;1.35;;;;;;;;;;4997292;28;20045;-64
2024/01/23 08:06:25;;;;;;;7.10;1.88;;;;;;;;;;4992951;28;20379;-64
2024/01/23 08:08:51;;;;;;;13.52;4.60;;;;;;;;;;4991045;28;20390;-64
2024/01/23 08:11:20;;;;;;;9.73;3.58;;;;;;;;;;4993597;28;20649;-64
2024/01/23 08:13:46;;;;;;;5.03;2.00;;;;;;;;;;4999242;28;20370;-64
2024/01/23 08:16:13;;;;;;;7.97;2.13;;;;;;;;;;4999675;28;20042;-65
2024/01/23 08:18:39;;;;;;;3.33;1.77;;;;;;;;;;4980645;28;20030;-64
2024/01/23 08:21:05;;;;;;;8.63;2.45;;;;;;;;;;4993251;28;20486;-64
2024/01/23 08:23:31;;;;;;;2.90;1.27;;;;;;;;;;4997017;28;20042;-64
2024/01/23 08:25:57;;;;;;;6.60;1.90;;;;;;;;;;4987181;28;20041;-63
2024/01/23 08:28:23;;;;;;;7.25;2.47;;;;;;;;;;4994016;28;20042;-63
2024/01/23 08:30:49;;;;;;;6.30;2.35;;;;;;;;;;4997699;28;20033;-65
2024/01/23 08:33:18;;;;;;;6.20;2.45;;;;;;;;;;4996522;28;20026;-64
2024/01/23 08:35:44;;;;;;;5.65;1.77;;;;;;;;;;5002459;28;20397;-63
2024/01/23 08:38:11;;;;;;;7.82;2.03;;;;;;;;;;4992853;28;20042;-63
2024/01/23 08:40:41;;;;;;;6.05;2.22;;;;;;;;;;5000237;28;20084;-64
2024/01/23 08:43:08;;;;;;;4.28;1.30;;;;;;;;;;4999971;28;20053;-61
2024/01/23 08:45:34;;;;;;;4.53;1.80;;;;;;;;;;5003227;28;20041;-63
2024/01/23 08:48:00;;;;;;;4.38;1.50;;;;;;;;;;4998960;28;20040;-61
2024/01/23 08:50:26;;;;;;;8.30;1.67;;;;;;;;;;4991253;28;20048;-62
2024/01/23 08:52:54;;;;;;;6.90;1.45;;;;;;;;;;4993751;28;20492;-63
2024/01/23 08:55:20;;;;;;;7.57;1.65;;;;;;;;;;4992540;28;20065;-62
2024/01/23 08:57:46;;;;;;;6.05;1.88;;;;;;;;;;4992420;28;20569;-64
2024/01/23 09:00:13;;;;;;;5.88;2.33;;;;;;;;;;4990722;28;20042;-63
2024/01/23 09:02:40;;;;;;;3.90;1.60;;;;;;;;;;4993307;28;20038;-62
2024/01/23 09:05:06;;;;;;;15.55;2.35;;;;;;;;;;4997837;28;20708;-63
2024/01/23 09:07:32;;;;;;;8.25;2.70;;;;;;;;;;4994965;28;20038;-62
2024/01/23 09:09:58;;;;;;;8.38;2.00;;;;;;;;;;4992539;28;20046;-64
2024/01/23 09:12:25;;;;;;;12.90;2.80;;;;;;;;;;4994636;28;20053;-63
2024/01/23 09:14:51;;;;;;;9.25;3.72;;;;;;;;;;4990469;28;20367;-63
2024/01/23 09:17:17;;;;;;;9.75;2.47;;;;;;;;;;4995924;28;20069;-64
2024/01/23 09:19:43;;;;;;;9.98;1.95;;;;;;;;;;4993905;28;20504;-63
2024/01/23 09:22:10;;;;;;;15.10;4.00;;;;;;;;;;4995422;28;20042;-62
2024/01/23 09:24:36;;;;;;;8.98;2.22;;;;;;;;;;4995132;28;20030;-63
2024/01/23 09:27:03;;;;;;;6.88;1.90;;;;;;;;;;4977921;28;20041;-63
2024/01/23 09:29:30;;;;;;;3.65;1.75;;;;;;;;;;4991582;28;20038;-63
2024/01/23 09:31:56;;;;;;;7.35;1.95;;;;;;;;;;4994118;28;20682;-63
2024/01/23 09:34:22;;;;;;;5.78;1.90;;;;;;;;;;4996003;28;20439;-63
2024/01/23 09:36:49;;;;;;;8.95;2.30;;;;;;;;;;4995586;28;20030;-62
2024/01/23 09:39:15;;;;;;;15.23;2.95;;;;;;;;;;4991545;28;20065;-61
2024/01/23 09:41:48;;;;;;;10.90;3.33;;;;;;;;;;4994355;28;20034;-61
2024/01/23 09:55:49;;;;;;;10.77;2.78;;;;;;;;;;5599124;22;20077;-59
2024/01/23 09:58:15;;;;;;;8.73;1.98;;;;;;;;;;4952123;28;20077;-59
2024/01/23 10:00:42;;;;;;;52.08;8.90;;;;;;;;;;4948757;28;20074;-59
2024/01/23 10:03:10;;;;;;;11.15;2.92;;;;;;;;;;4943139;28;20050;-59
2024/01/23 10:05:36;;;;;;;15.13;2.42;;;;;;;;;;4948870;28;20059;-59
2024/01/23 10:08:03;;;;;;;15.88;2.80;;;;;;;;;;4949186;28;20078;-59
2024/01/23 10:10:29;;;;;;;13.30;2.58;;;;;;;;;;4948955;28;20110;-60
2024/01/23 10:12:55;;;;;;;13.35;2.53;;;;;;;;;;4947748;28;20043;-59
2024/01/23 10:15:22;;;;;;;17.67;2.25;;;;;;;;;;4950119;28;20035;-60
2024/01/23 10:17:49;;;;;;;12.48;2.72;;;;;;;;;;4950108;28;20546;-59
2024/01/23 10:20:16;;;;;;;14.50;3.17;;;;;;;;;;4945704;28;20035;-60
2024/01/23 10:22:46;;;;;;;12.48;2.35;;;;;;;;;;4942953;28;20039;-58
2024/01/23 10:25:15;;;;;;;17.52;2.67;;;;;;;;;;4947872;28;20054;-58
2024/01/23 10:27:41;;;;;;;13.33;2.50;;;;;;;;;;4949587;28;20039;-58
2024/01/23 10:30:08;;;;;;;15.93;3.58;;;;;;;;;;4950099;28;20039;-59
2024/01/23 10:32:37;;;;;;;12.10;2.25;;;;;;;;;;4950434;28;20031;-59
2024/01/23 10:35:04;;;;;;;11.00;2.38;;;;;;;;;;4947139;28;20534;-59
2024/01/23 10:37:31;;;;;;;16.70;3.13;;;;;;;;;;4950437;28;20115;-59
2024/01/23 10:39:59;;;;;;;17.42;2.50;;;;;;;;;;4948136;28;20036;-58
2024/01/23 10:42:26;;;;;;;10.20;1.92;;;;;;;;;;4961950;28;20031;-59
2024/01/23 10:44:54;;;;;;;13.07;2.63;;;;;;;;;;4949392;28;20043;-59
2024/01/23 10:47:20;;;;;;;13.45;2.25;;;;;;;;;;4952524;28;20059;-59
2024/01/23 10:49:47;;;;;;;14.27;2.20;;;;;;;;;;4951618;28;20067;-58
2024/01/23 10:52:17;;;;;;;24.88;3.65;;;;;;;;;;4947470;28;20047;-57
2024/01/23 10:54:45;;;;;;;9.43;1.75;;;;;;;;;;4960325;28;20039;-58
2024/01/23 10:57:25;;;;;;;17.48;2.45;;;;;;;;;;4948303;28;20047;-59
2024/01/23 10:59:51;;;;;;;14.10;1.92;;;;;;;;;;4949715;28;20046;-58
2024/01/23 11:02:39;;;;;;;14.68;3.45;;;;;;;;;;4951622;28;20058;-58
2024/01/23 11:05:06;;;;;;;16.50;2.95;;;;;;;;;;4940885;28;20560;-59
2024/01/23 11:07:44;;;;;;;10.98;2.00;;;;;;;;;;4947151;28;20047;-59
2024/01/23 11:10:34;;;;;;;12.48;2.22;;;;;;;;;;4948640;28;20098;-59
2024/01/23 11:13:05;;;;;;;;;;;;;;;;;;4951418;28;20529;-58
2024/01/23 11:15:31;;;;;;;10.13;1.95;;;;;;;;;;4948601;28;20257;-61
2024/01/23 11:18:26;;;;;;;15.95;1.60;;;;;;;;;;4950600;28;20035;-59
2024/01/23 11:21:08;;;;;;;9.07;1.70;;;;;;;;;;4949973;28;20050;-59
2024/01/23 11:23:42;;;;;;;16.60;2.80;;;;;;;;;;4963962;28;20352;-59
2024/01/23 11:26:22;;;;;;;11.98;2.85;;;;;;;;;;4950589;28;20060;-59
2024/01/23 11:28:50;;;;;;;;;;;;;;;;;;4952656;28;20082;-58
2024/01/23 11:31:19;;;;;;;20.05;2.53;;;;;;;;;;4952312;28;19921;-58
2024/01/23 11:33:47;;;;;;;17.95;1.80;;;;;;;;;;4952011;28;20051;-60
2024/01/23 11:36:26;;;;;;;11.35;2.03;;;;;;;;;;4953907;28;20058;-58
2024/01/23 11:38:57;;;;;;;10.55;2.10;;;;;;;;;;4948358;28;20058;-58
2024/01/23 11:41:28;;;;;;;11.93;2.08;;;;;;;;;;4954110;28;20039;-58
2024/01/23 11:44:02;;;;;;;9.05;1.92;;;;;;;;;;4949040;28;20039;-58
2024/01/23 11:46:28;;;;;;;14.77;2.17;;;;;;;;;;4954288;28;20115;-58
2024/01/23 11:48:54;;;;;;;10.73;2.15;;;;;;;;;;4955250;28;20501;-58
2024/01/23 11:51:21;;;;;;;9.57;1.70;;;;;;;;;;4952844;28;20391;-58
2024/01/23 11:53:48;;;;;;;18.83;3.30;;;;;;;;;;4956266;28;20655;-58
2024/01/23 11:56:15;;;;;;;14.07;1.88;;;;;;;;;;4951838;28;20139;-59
2024/01/23 11:58:42;;;;;;;10.40;2.03;;;;;;;;;;4954781;28;20031;-59
2024/01/23 12:01:12;;;;;;;8.57;1.80;;;;;;;;;;4954725;28;20363;-59
2024/01/23 12:03:45;;;;;;;;;;;;;;;;;;4953230;28;20043;-58
2024/01/23 12:06:11;;;;;;;11.70;2.78;;;;;;;;;;4953546;28;19921;-58
2024/01/23 12:08:37;;;;;;;7.05;2.17;;;;;;;;;;4953053;28;20498;-58
2024/01/23 12:11:03;;;;;;;6.50;1.50;;;;;;;;;;4952998;28;20050;-59
2024/01/23 12:13:29;;;;;;;8.63;1.80;;;;;;;;;;4952418;28;20035;-61
2024/01/23 12:15:55;;;;;;;12.27;2.38;;;;;;;;;;4941344;29;20060;-59
2024/01/23 12:18:22;;;;;;;12.70;2.10;;;;;;;;;;4934930;29;20035;-60
2024/01/23 12:20:49;;;;;;;8.32;1.67;;;;;;;;;;4951528;28;20506;-59
2024/01/23 12:23:16;;;;;;;11.82;2.80;;;;;;;;;;4951189;28;20127;-58
2024/01/23 12:25:43;;;;;;;9.45;1.40;;;;;;;;;;4950003;28;20043;-58
2024/01/23 12:28:10;;;;;;;9.55;1.63;;;;;;;;;;4955132;28;20042;-59
2024/01/23 12:30:37;;;;;;;12.98;2.22;;;;;;;;;;4956941;28;20043;-60
2024/01/23 12:33:04;;;;;;;6.18;1.75;;;;;;;;;;4952355;28;20221;-59
2024/01/23 12:35:31;;;;;;;9.50;2.20;;;;;;;;;;4956040;28;20034;-59
2024/01/23 12:37:57;;;;;;;9.27;2.05;;;;;;;;;;4950986;28;20387;-58
2024/01/23 12:40:24;;;;;;;7.72;2.17;;;;;;;;;;4947628;28;20047;-60
2024/01/23 12:42:52;;;;;;;10.75;2.00;;;;;;;;;;4950876;28;20061;-59
2024/01/23 12:45:19;;;;;;;5.30;1.77;;;;;;;;;;4950822;28;20046;-60
2024/01/23 12:47:46;;;;;;;8.57;1.80;;;;;;;;;;4953131;28;20035;-59
2024/01/23 12:50:26;;;;;;;8.90;1.83;;;;;;;;;;4953379;28;20035;-59
2024/01/23 12:52:57;;;;;;;4.15;1.58;;;;;;;;;;4952139;28;20054;-59
2024/01/23 12:55:32;;;;;;;5.75;1.55;;;;;;;;;;4952826;28;20315;-59
2024/01/23 12:57:59;;;;;;;9.25;2.92;;;;;;;;;;4953687;28;20031;-58
2024/01/23 13:00:25;;;;;;;10.35;1.90;;;;;;;;;;4948205;28;20051;-59
2024/01/23 13:02:55;;;;;;;9.33;1.70;;;;;;;;;;4946488;28;20054;-59
2024/01/23 13:05:22;;;;;;;;;;;;;;;;;;4944786;28;20090;-60
2024/01/23 13:07:49;;;;;;;5.80;1.58;;;;;;;;;;4950690;28;19929;-59
2024/01/23 13:10:16;;;;;;;8.98;2.33;;;;;;;;;;4946777;28;20526;-59
2024/01/23 13:12:43;;;;;;;5.82;1.73;;;;;;;;;;4951492;28;20027;-59
2024/01/23 13:15:10;;;;;;;9.45;1.67;;;;;;;;;;4936270;28;20031;-61
2024/01/23 13:17:37;;;;;;;7.07;1.67;;;;;;;;;;4946106;28;20043;-59
2024/01/23 13:20:09;;;;;;;6.70;1.90;;;;;;;;;;4946257;28;20055;-59
2024/01/23 13:22:43;;;;;;;5.43;1.88;;;;;;;;;;4947902;28;20050;-59
2024/01/23 13:25:17;;;;;;;7.75;1.50;;;;;;;;;;4942112;28;20046;-59
2024/01/23 13:27:47;;;;;;;7.82;1.58;;;;;;;;;;4948531;28;20039;-58
2024/01/23 13:30:16;;;;;;;5.13;1.50;;;;;;;;;;4942797;28;20039;-59
2024/01/23 13:32:46;;;;;;;7.60;1.75;;;;;;;;;;4945603;28;20093;-58
2024/01/23 13:35:12;;;;;;;9.13;2.33;;;;;;;;;;4948932;28;20039;-58
2024/01/23 13:37:39;;;;;;;6.63;1.25;;;;;;;;;;4942362;28;20047;-60
2024/01/23 13:40:10;;;;;;;8.63;1.73;;;;;;;;;;4945770;28;20059;-59
2024/01/23 13:42:39;;;;;;;;;;;;;;;;;;4949248;28;20062;-58
2024/01/23 13:45:09;;;;;;;7.68;1.40;;;;;;;;;;4943666;28;19933;-59
2024/01/23 13:47:41;;;;;;;11.13;3.05;;;;;;;;;;4948106;28;20027;-60
2024/01/23 13:50:09;;;;;;;7.95;2.00;;;;;;;;;;4948464;28;20055;-59
2024/01/23 13:52:36;;;;;;;6.60;1.40;;;;;;;;;;4940799;28;20027;-59
2024/01/23 13:55:06;;;;;;;8.40;1.45;;;;;;;;;;4943054;28;20043;-58
2024/01/23 13:57:33;;;;;;;8.65;1.30;;;;;;;;;;4943002;28;20119;-58
2024/01/23 14:00:01;;;;;;;5.95;1.25;;;;;;;;;;4945016;28;20051;-58
2024/01/23 14:02:28;;;;;;;7.18;2.03;;;;;;;;;;4938810;28;20062;-60
2024/01/23 14:04:54;;;;;;;3.50;1.60;;;;;;;;;;4941972;28;21771;-58
2024/01/23 14:07:21;;;;;;;8.10;1.73;;;;;;;;;;4941050;28;20047;-60
2024/01/23 14:09:48;;;;;;;12.40;2.38;;;;;;;;;;4949411;28;20031;-59
2024/01/23 14:12:14;;;;;;;6.43;2.00;;;;;;;;;;4948716;28;20073;-59
2024/01/23 14:14:41;;;;;;;8.35;1.65;;;;;;;;;;4948930;28;20034;-59
2024/01/23 14:17:07;;;;;;;7.38;1.90;;;;;;;;;;4946925;28;20486;-59
2024/01/23 14:19:34;;;;;;;7.43;2.38;;;;;;;;;;4945907;28;20035;-59
2024/01/23 14:22:00;;;;;;;8.05;1.80;;;;;;;;;;4947145;28;20047;-59
2024/01/23 14:24:27;;;;;;;4.13;1.40;;;;;;;;;;4947808;28;20402;-60
2024/01/23 14:26:54;;;;;;;6.43;1.30;;;;;;;;;;4942894;28;20426;-59
2024/01/23 14:29:20;;;;;;;9.05;2.67;;;;;;;;;;4944885;28;20035;-60
2024/01/23 14:31:47;;;;;;;17.83;4.70;;;;;;;;;;4944799;28;20035;-60
2024/01/23 14:34:14;;;;;;;16.55;5.13;;;;;;;;;;4945336;28;20035;-60
2024/01/23 14:36:40;;;;;;;6.68;2.10;;;;;;;;;;4941827;28;20042;-61
2024/01/23 14:39:11;;;;;;;9.73;3.35;;;;;;;;;;4936766;28;20055;-59
2024/01/23 14:41:38;;;;;;;7.65;2.08;;;;;;;;;;4936771;28;20047;-60
2024/01/23 14:44:04;;;;;;;5.10;1.38;;;;;;;;;;4951094;28;20414;-60
2024/01/23 14:46:31;;;;;;;7.85;1.77;;;;;;;;;;4942563;28;20044;-59
2024/01/23 14:48:57;;;;;;;6.40;1.73;;;;;;;;;;4944947;28;20057;-59
2024/01/23 14:51:24;;;;;;;7.00;2.33;;;;;;;;;;4949806;28;20035;-60
2024/01/23 14:53:50;;;;;;;7.82;1.88;;;;;;;;;;4948593;28;20054;-59